Time;durP1;ratioP1;P1;durP2;ratioP2;P2;SDS_P1;SDS_P2;PMS_P1;PMS_P2;Temp;Humidity;BMP_temperature;BMP_pressure;BME280_temperature;BME280_humidity;BME280_pressure;Samples;Min_cycle;Max_cycle;Signal;HPM_P1;HPM_P2
2022/05/19 00:01:35;;;;;;;4.55;1.70;;;15.50;51.80;;;;;;4997401;28;20084;-79
2022/05/19 00:04:02;;;;;;;4.05;1.80;;;15.50;51.90;;;;;;5014537;28;20030;-79
2022/05/19 00:06:28;;;;;;;5.40;1.50;;;15.40;52.00;;;;;;5013192;28;20030;-78
2022/05/19 00:08:54;;;;;;;2.95;1.50;;;15.60;51.50;;;;;;5016405;28;20033;-78
2022/05/19 00:11:27;;;;;;;3.00;1.60;;;15.90;51.00;;;;;;5017126;28;20029;-78
2022/05/19 00:13:53;;;;;;;3.40;1.50;;;15.70;50.70;;;;;;5035124;28;20087;-79
2022/05/19 00:16:19;;;;;;;2.95;1.60;;;15.90;50.70;;;;;;5034376;28;20026;-78
2022/05/19 00:18:44;;;;;;;3.38;1.60;;;15.70;51.20;;;;;;5017337;28;20371;-79
2022/05/19 00:21:10;;;;;;;2.95;1.60;;;15.60;51.60;;;;;;5016543;28;20025;-77
2022/05/19 00:23:36;;;;;;;3.28;1.80;;;15.80;51.40;;;;;;5034029;28;20041;-78
2022/05/19 00:26:02;;;;;;;3.72;1.50;;;16.00;51.30;;;;;;5034058;28;20021;-76
2022/05/19 00:28:27;;;;;;;4.35;1.73;;;16.30;50.90;;;;;;5016458;28;20108;-77
2022/05/19 00:30:53;;;;;;;3.72;1.65;;;16.50;50.50;;;;;;5015840;28;20056;-77
2022/05/19 00:33:19;;;;;;;4.93;1.70;;;16.60;50.20;;;;;;5016783;28;20087;-78
2022/05/19 00:35:44;;;;;;;4.03;1.63;;;16.80;49.80;;;;;;5033976;28;20443;-77
2022/05/19 00:38:10;;;;;;;3.78;1.60;;;16.50;50.00;;;;;;5004619;28;20029;-77
2022/05/19 00:40:38;;;;;;;3.67;1.60;;;16.60;49.90;;;;;;5028442;28;20595;-78
2022/05/19 00:43:04;;;;;;;3.13;1.50;;;16.70;49.70;;;;;;5033053;28;20484;-77
2022/05/19 00:45:41;;;;;;;3.28;1.60;;;16.50;49.90;;;;;;5016122;28;20370;-78
2022/05/19 00:48:12;;;;;;;2.97;1.60;;;16.40;50.10;;;;;;5016034;28;20024;-77
2022/05/19 00:50:56;;;;;;;3.85;1.60;;;16.30;50.20;;;;;;5016282;28;20036;-78
2022/05/19 00:53:41;;;;;;;3.20;1.85;;;16.40;49.90;;;;;;5031953;28;20021;-77
2022/05/19 00:56:31;;;;;;;4.18;2.25;;;16.20;50.30;;;;;;5013581;28;20125;-78
2022/05/19 00:59:06;;;;;;;;;;;16.10;50.20;;;;;;5014130;28;20028;-78
2022/05/19 01:01:35;;;;;;;2.92;1.60;;;15.80;50.90;;;;;;5028963;28;19913;-77
2022/05/19 01:04:14;;;;;;;3.83;1.80;;;15.70;51.30;;;;;;5013394;28;20045;-77
2022/05/19 01:06:43;;;;;;;4.68;2.25;;;15.50;51.70;;;;;;5013722;28;20440;-78
2022/05/19 01:09:12;;;;;;;3.65;1.90;;;15.70;51.50;;;;;;5032236;28;20021;-77
2022/05/19 01:11:38;;;;;;;3.33;1.50;;;15.50;51.40;;;;;;5015288;28;20051;-77
2022/05/19 01:14:08;;;;;;;2.97;1.67;;;15.50;51.60;;;;;;5033567;28;20380;-78
2022/05/19 01:16:34;;;;;;;4.18;2.38;;;15.30;51.80;;;;;;5015753;28;20029;-78
2022/05/19 01:19:03;;;;;;;3.17;1.88;;;15.20;51.90;;;;;;5033498;28;20037;-79
2022/05/19 01:21:31;;;;;;;3.95;1.90;;;14.90;52.60;;;;;;5033202;28;20025;-78
2022/05/19 01:24:17;;;;;;;3.90;1.95;;;14.80;53.00;;;;;;5015500;28;20037;-78
2022/05/19 01:26:47;;;;;;;4.03;1.90;;;14.70;52.80;;;;;;5033154;28;20108;-78
2022/05/19 01:29:14;;;;;;;3.70;1.80;;;14.60;53.60;;;;;;5033404;28;20033;-78
2022/05/19 01:31:52;;;;;;;3.17;1.77;;;14.50;53.80;;;;;;5027809;28;20095;-77
2022/05/19 01:34:24;;;;;;;3.97;1.95;;;14.60;53.80;;;;;;5013671;28;20445;-78
2022/05/19 01:36:53;;;;;;;4.38;1.90;;;14.50;54.20;;;;;;5013370;28;20022;-79
2022/05/19 01:39:25;;;;;;;4.15;2.28;;;14.40;54.10;;;;;;4995518;28;20022;-77
2022/05/19 01:42:00;;;;;;;3.53;1.92;;;14.30;54.00;;;;;;4995825;28;20041;-79
2022/05/19 01:44:34;;;;;;;3.50;1.83;;;14.30;54.30;;;;;;5013357;28;20026;-78
2022/05/19 01:47:10;;;;;;;4.47;2.20;;;14.20;55.00;;;;;;5013105;28;20392;-77
2022/05/19 01:49:53;;;;;;;3.50;1.88;;;14.60;54.60;;;;;;5013070;28;20018;-76
2022/05/19 01:52:49;;;;;;;4.82;2.00;;;14.90;54.10;;;;;;5011856;28;20072;-76
2022/05/19 01:55:27;;;;;;;3.75;1.90;;;15.10;53.70;;;;;;4994087;28;20050;-76
2022/05/19 01:58:00;;;;;;;3.20;1.73;;;15.40;53.60;;;;;;5017071;28;20481;-77
2022/05/19 02:00:28;;;;;;;3.30;1.80;;;15.40;53.70;;;;;;5016960;28;20029;-77
2022/05/19 02:03:08;;;;;;;3.95;1.77;;;15.60;53.60;;;;;;5016895;28;20046;-78
2022/05/19 02:05:55;;;;;;;4.97;1.80;;;15.70;52.40;;;;;;5017128;28;20512;-77
2022/05/19 02:08:27;;;;;;;4.18;1.98;;;15.80;52.50;;;;;;4999356;28;20068;-77
2022/05/19 02:10:55;;;;;;;3.13;1.92;;;15.90;52.10;;;;;;4998752;28;20059;-76
2022/05/19 02:13:22;;;;;;;3.13;1.73;;;15.70;53.00;;;;;;4999454;28;20596;-76
2022/05/19 02:15:51;;;;;;;3.45;1.73;;;15.50;53.40;;;;;;5016777;28;20030;-78
2022/05/19 02:18:21;;;;;;;3.28;1.80;;;15.40;54.10;;;;;;5016765;28;20544;-78
2022/05/19 02:20:49;;;;;;;3.58;1.75;;;15.30;53.30;;;;;;5022662;28;20101;-79
2022/05/19 02:23:16;;;;;;;3.65;1.80;;;15.50;52.90;;;;;;5036199;28;20033;-78
2022/05/19 02:25:46;;;;;;;3.60;1.60;;;15.60;52.20;;;;;;5036325;28;20380;-78
2022/05/19 02:28:24;;;;;;;3.60;1.90;;;15.60;52.30;;;;;;5036259;28;20107;-79
2022/05/19 02:30:49;;;;;;;3.30;1.67;;;15.60;52.50;;;;;;5018721;28;20423;-78
2022/05/19 02:33:17;;;;;;;4.50;1.98;;;15.70;52.50;;;;;;5036083;28;20033;-78
2022/05/19 02:35:43;;;;;;;6.15;2.03;;;15.40;52.40;;;;;;5036452;28;20017;-80
2022/05/19 02:38:10;;;;;;;5.18;2.10;;;15.00;53.10;;;;;;5018277;28;20026;-78
2022/05/19 02:40:37;;;;;;;4.43;1.95;;;14.90;53.40;;;;;;5018774;28;20025;-76
2022/05/19 02:43:04;;;;;;;3.78;2.25;;;15.00;53.40;;;;;;5036200;28;20033;-77
2022/05/19 02:45:30;;;;;;;3.60;1.98;;;15.20;53.20;;;;;;5036339;28;20064;-78
2022/05/19 02:47:57;;;;;;;3.45;1.95;;;15.20;52.80;;;;;;5035747;28;20032;-77
2022/05/19 02:50:23;;;;;;;4.00;2.00;;;15.00;53.20;;;;;;5016225;28;20018;-78
2022/05/19 02:52:49;;;;;;;5.78;2.05;;;15.20;52.80;;;;;;5016198;28;20038;-78
2022/05/19 02:55:15;;;;;;;4.07;1.90;;;15.40;52.50;;;;;;5015779;28;20041;-78
2022/05/19 02:57:42;;;;;;;5.10;2.10;;;15.30;52.40;;;;;;5016188;28;20029;-76
2022/05/19 03:00:14;;;;;;;4.22;1.88;;;15.30;52.40;;;;;;4998493;28;20029;-76
2022/05/19 03:02:41;;;;;;;3.08;1.77;;;15.40;52.40;;;;;;4998331;28;20037;-77
2022/05/19 03:05:09;;;;;;;5.47;1.90;;;15.40;52.70;;;;;;5022683;28;20021;-77
2022/05/19 03:07:35;;;;;;;5.18;2.00;;;15.50;52.80;;;;;;5035654;28;20029;-77
2022/05/19 03:10:02;;;;;;;5.85;2.30;;;15.70;52.40;;;;;;5035444;28;20028;-78
2022/05/19 03:12:28;;;;;;;4.05;1.80;;;15.80;52.10;;;;;;5018017;28;20080;-77
2022/05/19 03:14:55;;;;;;;4.20;1.90;;;15.90;51.40;;;;;;5035554;28;20483;-78
2022/05/19 03:17:21;;;;;;;6.10;2.00;;;15.90;51.20;;;;;;5035721;28;20101;-78
2022/05/19 03:19:47;;;;;;;4.22;2.00;;;15.60;51.40;;;;;;5017707;28;20075;-78
2022/05/19 03:22:12;;;;;;;6.15;2.60;;;15.40;51.80;;;;;;5017758;28;20026;-76
2022/05/19 03:24:38;;;;;;;5.43;2.00;;;15.20;52.20;;;;;;5015729;28;20030;-76
2022/05/19 03:27:05;;;;;;;4.53;1.88;;;15.10;53.20;;;;;;5015619;28;20033;-76
2022/05/19 03:29:31;;;;;;;4.00;1.90;;;15.10;53.80;;;;;;5015600;28;20350;-77
2022/05/19 03:31:59;;;;;;;3.97;1.90;;;15.20;52.70;;;;;;5015189;28;20029;-79
2022/05/19 03:34:25;;;;;;;4.22;2.38;;;15.20;52.60;;;;;;4997848;28;20048;-76
2022/05/19 03:36:51;;;;;;;7.38;1.75;;;15.30;52.80;;;;;;5015384;28;20496;-78
2022/05/19 03:39:18;;;;;;;4.15;1.83;;;15.10;53.80;;;;;;4997474;28;20034;-76
2022/05/19 03:41:43;;;;;;;3.10;1.75;;;15.00;54.20;;;;;;5015338;28;20473;-77
2022/05/19 03:44:10;;;;;;;5.47;1.85;;;15.30;53.90;;;;;;5015056;28;20030;-76
2022/05/19 03:46:36;;;;;;;4.03;2.50;;;15.60;53.40;;;;;;5015331;28;20022;-77
2022/05/19 03:49:03;;;;;;;4.20;1.70;;;15.80;52.70;;;;;;5021030;28;20036;-77
2022/05/19 03:51:32;;;;;;;4.63;1.90;;;16.00;52.20;;;;;;5016741;28;20029;-77
2022/05/19 03:53:58;;;;;;;3.20;1.80;;;16.30;51.90;;;;;;5016874;28;20514;-78
2022/05/19 03:56:24;;;;;;;4.00;1.80;;;16.40;51.50;;;;;;5034503;28;20049;-77
2022/05/19 03:58:50;;;;;;;4.05;1.80;;;16.50;50.90;;;;;;5034550;28;20029;-77
2022/05/19 04:01:18;;;;;;;4.75;1.42;;;16.60;50.90;;;;;;5017393;28;20025;-76
2022/05/19 04:03:44;;;;;;;5.95;1.80;;;16.70;51.00;;;;;;5016578;28;20422;-77
2022/05/19 04:06:10;;;;;;;4.93;2.08;;;16.90;50.60;;;;;;5034486;28;20036;-77
2022/05/19 04:08:36;;;;;;;4.05;2.25;;;17.10;50.10;;;;;;5004803;28;20489;-78
2022/05/19 04:11:02;;;;;;;2.83;1.58;;;17.30;49.50;;;;;;4996744;28;20030;-77
2022/05/19 04:13:28;;;;;;;3.30;1.77;;;17.20;49.70;;;;;;5014680;28;20041;-77
2022/05/19 04:15:54;;;;;;;4.18;1.60;;;17.00;50.40;;;;;;5014656;28;20077;-77
2022/05/19 04:18:19;;;;;;;4.95;1.80;;;17.00;50.60;;;;;;5014244;28;20034;-79
2022/05/19 04:20:45;;;;;;;4.47;1.70;;;17.10;50.60;;;;;;5014414;28;20037;-79
2022/05/19 04:23:11;;;;;;;5.05;1.90;;;17.10;51.40;;;;;;5014557;28;20507;-78
2022/05/19 04:25:38;;;;;;;3.38;1.73;;;17.10;51.40;;;;;;4997319;28;20050;-78
2022/05/19 04:28:04;;;;;;;3.03;1.70;;;17.10;50.60;;;;;;5014141;28;20057;-78
2022/05/19 04:30:30;;;;;;;3.63;2.00;;;17.30;50.10;;;;;;5014422;28;20515;-79
2022/05/19 04:32:56;;;;;;;5.68;1.90;;;17.40;50.00;;;;;;5015233;28;20045;-79
2022/05/19 04:35:22;;;;;;;2.90;1.67;;;17.60;50.00;;;;;;4996844;28;20030;-80
2022/05/19 04:37:48;;;;;;;5.35;1.70;;;17.70;49.20;;;;;;5001013;28;20021;-78
2022/05/19 04:40:16;;;;;;;4.68;1.90;;;17.70;49.20;;;;;;5016022;28;20476;-78
2022/05/19 04:42:42;;;;;;;4.78;1.85;;;17.90;49.40;;;;;;5033726;28;20140;-78
2022/05/19 04:45:10;;;;;;;4.57;1.83;;;17.90;49.30;;;;;;5033910;28;20097;-79
2022/05/19 04:47:36;;;;;;;5.95;2.00;;;18.00;48.80;;;;;;5016143;28;20026;-77
2022/05/19 04:50:02;;;;;;;3.72;1.50;;;18.20;48.50;;;;;;5025483;28;20022;-76
2022/05/19 04:52:27;;;;;;;3.33;1.80;;;18.30;48.10;;;;;;5022635;28;20524;-78
2022/05/19 04:54:53;;;;;;;7.78;1.70;;;18.50;47.80;;;;;;4998565;28;20030;-78
2022/05/19 04:57:19;;;;;;;4.32;1.70;;;18.70;47.90;;;;;;5012787;28;20030;-79
2022/05/19 04:59:45;;;;;;;4.28;1.60;;;18.70;47.30;;;;;;5019144;28;20037;-79
2022/05/19 05:02:11;;;;;;;6.07;1.90;;;18.80;46.10;;;;;;5027196;28;20029;-78
2022/05/19 05:04:37;;;;;;;4.60;1.60;;;18.90;45.80;;;;;;5033545;28;20049;-79
2022/05/19 05:07:04;;;;;;;5.30;1.70;;;19.10;45.50;;;;;;5033817;28;20395;-78
2022/05/19 05:09:30;;;;;;;4.30;1.60;;;19.20;45.00;;;;;;5025029;28;20068;-76
2022/05/19 05:11:56;;;;;;;4.18;1.70;;;19.40;45.20;;;;;;5021776;28;20030;-75
2022/05/19 05:14:22;;;;;;;4.00;1.70;;;18.10;46.50;;;;;;5021547;28;20174;-78
2022/05/19 05:16:49;;;;;;;4.25;1.85;;;17.80;48.00;;;;;;5021747;28;20110;-78
2022/05/19 05:19:19;;;;;;;4.10;2.10;;;18.20;47.80;;;;;;5023813;28;20376;-78
2022/05/19 05:21:45;;;;;;;5.78;1.58;;;18.50;47.50;;;;;;5002915;28;20072;-78
2022/05/19 05:24:11;;;;;;;3.53;1.80;;;18.50;47.00;;;;;;5027455;28;20068;-76
2022/05/19 05:26:37;;;;;;;4.10;2.10;;;18.80;47.80;;;;;;5032101;28;20038;-77
2022/05/19 05:29:02;;;;;;;5.78;1.83;;;18.80;47.90;;;;;;5014618;28;20116;-82
2022/05/19 05:31:28;;;;;;;5.55;1.88;;;19.10;47.50;;;;;;5015612;28;20044;-79
2022/05/19 05:33:54;;;;;;;5.35;2.00;;;19.70;47.50;;;;;;5032973;28;20678;-78
2022/05/19 05:36:20;;;;;;;3.50;1.77;;;19.50;47.00;;;;;;5014640;28;20088;-79
2022/05/19 05:38:46;;;;;;;5.65;1.80;;;19.30;47.50;;;;;;5033165;28;20057;-76
2022/05/19 05:41:13;;;;;;;4.07;1.85;;;18.80;47.70;;;;;;5015177;28;20029;-79
2022/05/19 05:43:40;;;;;;;5.00;1.75;;;17.30;50.30;;;;;;5032984;28;20025;-80
2022/05/19 05:46:10;;;;;;;4.32;2.13;;;16.80;52.60;;;;;;5015112;28;20120;-79
2022/05/19 05:48:36;;;;;;;6.43;2.42;;;17.30;52.00;;;;;;5032848;28;20391;-77
2022/05/19 05:51:10;;;;;;;3.75;2.30;;;18.40;50.40;;;;;;5015111;28;20056;-80
2022/05/19 05:53:37;;;;;;;4.03;1.90;;;19.20;47.80;;;;;;5015476;28;20041;-80
2022/05/19 05:56:04;;;;;;;3.92;1.70;;;19.60;47.30;;;;;;5015264;28;20061;-80
2022/05/19 05:58:30;;;;;;;4.05;2.05;;;20.20;46.30;;;;;;5014972;28;20037;-74
2022/05/19 06:00:58;;;;;;;3.47;1.85;;;20.40;44.40;;;;;;5032422;28;20035;-79
2022/05/19 06:03:24;;;;;;;4.07;1.90;;;20.50;45.10;;;;;;5001274;28;20033;-83
2022/05/19 06:05:50;;;;;;;5.07;1.98;;;21.00;43.40;;;;;;4999203;28;20112;-78
2022/05/19 06:08:16;;;;;;;5.65;1.80;;;21.20;43.60;;;;;;5015551;28;20071;-77
2022/05/19 06:10:42;;;;;;;3.70;2.03;;;21.60;43.30;;;;;;5033103;28;20147;-78
2022/05/19 06:13:08;;;;;;;5.50;2.17;;;20.70;42.90;;;;;;5032748;28;20135;-78
2022/05/19 06:15:34;;;;;;;4.70;2.22;;;19.90;44.30;;;;;;5032984;28;20108;-78
2022/05/19 06:18:00;;;;;;;4.80;1.80;;;19.70;45.70;;;;;;5033165;28;20036;-82
2022/05/19 06:20:27;;;;;;;5.72;1.60;;;20.00;44.20;;;;;;5024295;28;20026;-77
2022/05/19 06:22:53;;;;;;;5.88;1.88;;;20.50;44.00;;;;;;5012367;28;20110;-76
2022/05/19 06:25:21;;;;;;;5.22;1.73;;;20.90;42.60;;;;;;5013126;28;20029;-79
2022/05/19 06:27:49;;;;;;;3.83;1.70;;;21.00;44.10;;;;;;5013192;28;20028;-76
2022/05/19 06:30:15;;;;;;;4.40;1.90;;;21.30;42.20;;;;;;5013185;28;20026;-88
2022/05/19 06:32:42;;;;;;;5.47;1.88;;;21.60;42.80;;;;;;4995446;28;20041;-78
2022/05/19 06:35:09;;;;;;;4.50;1.70;;;22.00;42.10;;;;;;5012892;28;20109;-80
2022/05/19 06:37:35;;;;;;;4.18;1.90;;;21.10;40.80;;;;;;4995563;28;20037;-83
2022/05/19 06:40:01;;;;;;;3.85;2.00;;;20.30;43.50;;;;;;5013617;28;20120;-79
2022/05/19 06:42:26;;;;;;;5.78;1.80;;;20.60;43.40;;;;;;5017047;28;20033;-79
2022/05/19 06:44:52;;;;;;;4.18;2.00;;;20.80;43.90;;;;;;5017758;28;20026;-78
2022/05/19 06:47:18;;;;;;;8.02;1.90;;;21.50;43.70;;;;;;4999006;28;20140;-92
2022/05/19 06:49:46;;;;;;;3.28;1.70;;;20.80;43.90;;;;;;4998897;28;20058;-80
2022/05/19 06:52:13;;;;;;;5.55;1.98;;;21.20;44.00;;;;;;4998979;28;20030;-83
2022/05/19 06:54:41;;;;;;;3.78;2.20;;;21.80;42.90;;;;;;5016543;28;20026;-81
2022/05/19 06:57:07;;;;;;;6.50;1.80;;;22.00;42.80;;;;;;4999144;28;20077;-80
2022/05/19 06:59:35;;;;;;;3.95;2.25;;;22.30;42.20;;;;;;5000023;28;20018;-85
2022/05/19 07:02:01;;;;;;;7.70;1.88;;;22.70;41.40;;;;;;5016058;28;20038;-80
2022/05/19 07:04:27;;;;;;;5.50;1.70;;;23.20;41.50;;;;;;5023248;28;20026;-80
2022/05/19 07:06:52;;;;;;;3.70;2.03;;;23.50;41.80;;;;;;5018168;28;20031;-83
2022/05/19 07:09:18;;;;;;;3.83;1.83;;;23.30;41.40;;;;;;5017915;28;20026;-84
2022/05/19 07:11:44;;;;;;;3.78;2.05;;;22.60;44.20;;;;;;5018133;28;20139;-81
2022/05/19 07:14:10;;;;;;;5.28;2.10;;;23.00;43.00;;;;;;5017253;28;20071;-87
2022/05/19 07:16:41;;;;;;;3.95;1.70;;;23.60;43.50;;;;;;5017926;28;20457;-80
2022/05/19 07:21:52;;;;;;;3.95;1.70;;;23.20;42.80;;;;;;4994841;28;20026;-78
2022/05/19 07:24:21;;;;;;;6.38;1.80;;;22.70;42.90;;;;;;4994110;28;20138;-77
2022/05/19 07:26:50;;;;;;;5.65;1.88;;;22.10;43.20;;;;;;4977518;28;20031;-79
2022/05/19 07:29:16;;;;;;;4.05;2.03;;;22.30;44.00;;;;;;4977569;28;20520;-79
2022/05/19 07:31:43;;;;;;;4.90;1.75;;;22.50;44.10;;;;;;4994871;28;20466;-85
2022/05/19 07:34:10;;;;;;;6.88;1.80;;;22.80;43.80;;;;;;4993303;28;20054;-78
2022/05/19 07:36:36;;;;;;;5.28;1.98;;;22.80;43.20;;;;;;4993738;28;20033;-78
2022/05/19 07:39:03;;;;;;;4.45;1.77;;;22.70;44.00;;;;;;4994031;28;20086;-80
2022/05/19 07:41:30;;;;;;;4.00;1.80;;;23.20;43.90;;;;;;4993623;28;20204;-79
2022/05/19 07:43:57;;;;;;;5.00;1.98;;;23.10;43.30;;;;;;4992478;28;20031;-77
2022/05/19 07:46:26;;;;;;;6.45;2.03;;;23.30;44.00;;;;;;4992372;28;20142;-78
2022/05/19 07:48:54;;;;;;;4.75;2.10;;;23.80;44.20;;;;;;4993498;28;20113;-79
2022/05/19 07:51:21;;;;;;;4.50;1.90;;;23.50;42.90;;;;;;4976145;28;20037;-83
2022/05/19 07:53:48;;;;;;;4.22;1.80;;;22.70;43.60;;;;;;4991980;28;20054;-79
2022/05/19 07:56:14;;;;;;;4.95;1.95;;;22.90;44.40;;;;;;4993254;28;20086;-78
2022/05/19 07:58:40;;;;;;;4.15;2.10;;;23.60;43.20;;;;;;4993557;28;20492;-77
2022/05/19 08:01:06;;;;;;;5.47;1.83;;;23.60;42.90;;;;;;5035268;28;20029;-79
2022/05/19 08:03:31;;;;;;;5.07;1.98;;;23.50;44.80;;;;;;5035238;28;20030;-79
2022/05/19 08:05:57;;;;;;;4.85;1.75;;;23.10;44.10;;;;;;5015232;28;20022;-79
2022/05/19 08:08:23;;;;;;;5.28;1.90;;;23.10;44.40;;;;;;5015055;28;20053;-79
2022/05/19 08:10:49;;;;;;;4.75;2.03;;;23.00;43.60;;;;;;5015568;28;20389;-83
2022/05/19 08:15:59;;;;;;;4.70;1.83;;;22.30;44.60;;;;;;5015043;28;20088;-78
2022/05/19 08:18:26;;;;;;;7.10;2.00;;;22.40;45.00;;;;;;4998271;28;20053;-80
2022/05/19 08:20:57;;;;;;;4.68;2.10;;;22.60;43.90;;;;;;5015235;28;20034;-82
2022/05/19 08:23:27;;;;;;;9.52;2.20;;;22.60;43.80;;;;;;4997949;28;20603;-84
2022/05/19 08:25:54;;;;;;;4.53;2.00;;;22.70;43.70;;;;;;4997443;28;20041;-77
2022/05/19 08:28:21;;;;;;;8.07;1.90;;;23.40;44.20;;;;;;5015066;28;20034;-81
2022/05/19 08:30:51;;;;;;;4.85;1.80;;;23.80;42.00;;;;;;5014787;28;20022;-86
2022/05/19 08:33:18;;;;;;;7.50;1.90;;;23.90;42.30;;;;;;5010597;28;20674;-80
2022/05/19 08:35:45;;;;;;;5.18;1.90;;;24.60;43.00;;;;;;5016144;28;20040;-80
2022/05/19 08:38:10;;;;;;;5.25;2.00;;;25.70;42.30;;;;;;5034123;28;20033;-84
2022/05/19 08:40:51;;;;;;;3.85;1.80;;;26.20;39.10;;;;;;5017829;28;20052;-80
2022/05/19 08:43:21;;;;;;;5.00;2.00;;;25.40;39.40;;;;;;5016516;28;20033;-79
2022/05/19 08:45:52;;;;;;;5.68;1.90;;;25.30;40.70;;;;;;5016300;28;20052;-82
2022/05/19 08:48:24;;;;;;;5.15;1.80;;;25.60;40.30;;;;;;5034927;28;20025;-86
2022/05/19 08:51:05;;;;;;;4.07;1.70;;;25.70;39.40;;;;;;5016561;28;20033;-78
2022/05/19 08:53:41;;;;;;;6.32;2.05;;;25.40;39.20;;;;;;5033828;28;20034;-80
2022/05/19 08:56:21;;;;;;;3.33;1.70;;;26.30;40.10;;;;;;5033823;28;20041;-78
2022/05/19 08:59:06;;;;;;;5.90;1.90;;;26.80;40.50;;;;;;5034048;28;20463;-81
2022/05/19 09:01:43;;;;;;;5.50;1.70;;;27.40;39.80;;;;;;5033618;28;20029;-79
2022/05/19 09:04:23;;;;;;;3.25;1.75;;;27.10;37.80;;;;;;5013877;28;20568;-78
2022/05/19 09:09:54;;;;;;;5.72;1.88;;;26.60;39.40;;;;;;5020716;28;20152;-81
2022/05/19 09:12:22;;;;;;;4.63;2.00;;;26.10;37.50;;;;;;5033588;28;20044;-80
2022/05/19 09:14:48;;;;;;;6.95;1.92;;;26.00;40.40;;;;;;5016229;28;20056;-85
2022/05/19 09:17:14;;;;;;;4.07;2.03;;;26.50;40.80;;;;;;5033923;28;20032;-78
2022/05/19 09:19:43;;;;;;;3.20;1.63;;;27.00;39.00;;;;;;5033582;28;20025;-79
2022/05/19 09:22:21;;;;;;;6.57;1.95;;;27.70;39.70;;;;;;5034136;28;20395;-83
2022/05/19 09:24:49;;;;;;;6.03;2.00;;;27.50;38.20;;;;;;5016440;28;20022;-83
2022/05/19 09:27:19;;;;;;;7.93;1.90;;;26.70;38.60;;;;;;5033331;28;20057;-80
2022/05/19 09:29:51;;;;;;;5.65;1.90;;;26.70;37.70;;;;;;5016116;28;20030;-83
2022/05/19 09:32:18;;;;;;;4.10;1.67;;;25.80;37.10;;;;;;5027043;28;20030;-84
2022/05/19 09:34:49;;;;;;;6.10;1.80;;;25.90;38.10;;;;;;5014013;28;20026;-87
2022/05/19 09:37:43;;;;;;;3.22;1.65;;;26.60;39.10;;;;;;4995701;28;20026;-78
2022/05/19 09:40:12;;;;;;;4.05;1.88;;;27.10;39.30;;;;;;5008881;28;20084;-85
2022/05/19 09:42:54;;;;;;;6.30;2.15;;;27.40;37.90;;;;;;4995758;28;20044;-82
2022/05/19 09:45:26;;;;;;;3.90;1.90;;;27.70;37.70;;;;;;4995994;28;20446;-79
2022/05/19 09:47:57;;;;;;;11.43;3.72;;;28.20;37.70;;;;;;5012111;28;20030;-78
2022/05/19 09:50:26;;;;;;;8.50;1.90;;;28.30;38.20;;;;;;5013315;28;20385;-83
2022/05/19 09:53:05;;;;;;;4.32;1.92;;;28.00;36.10;;;;;;5015216;28;20034;-81
2022/05/19 09:55:32;;;;;;;4.38;1.90;;;27.60;38.00;;;;;;5015226;28;20049;-80
2022/05/19 09:58:02;;;;;;;5.25;2.22;;;27.80;36.60;;;;;;5032794;28;20026;-81
2022/05/19 10:00:58;;;;;;;7.18;1.90;;;27.70;38.20;;;;;;5017167;28;20083;-83
2022/05/19 10:03:48;;;;;;;5.20;1.75;;;27.90;37.20;;;;;;5033030;28;20488;-83
2022/05/19 10:06:20;;;;;;;4.30;1.97;;;28.30;37.80;;;;;;5033201;28;20587;-80
2022/05/19 10:08:47;;;;;;;7.47;2.05;;;28.80;37.20;;;;;;5015636;28;20282;-85
2022/05/19 10:11:13;;;;;;;4.45;1.98;;;28.60;35.90;;;;;;5015541;28;20029;-83
2022/05/19 10:13:46;;;;;;;4.03;2.08;;;27.60;35.50;;;;;;5015634;28;20099;-80
2022/05/19 10:16:36;;;;;;;4.07;1.90;;;27.70;36.60;;;;;;5018924;28;20017;-80
2022/05/19 10:19:54;;;;;;;5.15;1.90;;;28.30;35.10;;;;;;5019449;28;20102;-88
2022/05/19 10:22:42;;;;;;;4.88;2.00;;;28.60;38.00;;;;;;5037910;28;20437;-85
2022/05/19 10:25:18;;;;;;;4.80;1.77;;;29.10;36.90;;;;;;5009893;28;20034;-80
2022/05/19 10:31:14;;;;;;;5.60;2.10;;;29.40;35.10;;;;;;5017123;28;20612;-85
2022/05/19 10:33:51;;;;;;;6.32;2.35;;;29.30;35.60;;;;;;5017149;28;20034;-86
2022/05/19 10:36:45;;;;;;;5.07;1.88;;;29.40;33.50;;;;;;4999215;28;20149;-92
2022/05/19 10:39:50;;;;;;;2.88;1.70;;;29.80;36.50;;;;;;4956346;29;20039;-85
2022/05/19 10:42:38;;;;;;;3.72;1.80;;;29.70;34.90;;;;;;4957021;29;20023;-80
2022/05/19 10:45:31;;;;;;;3.17;1.73;;;29.40;33.70;;;;;;4956609;29;20090;-79
2022/05/19 10:48:24;;;;;;;3.47;1.77;;;29.50;33.90;;;;;;4941062;29;20023;-84
2022/05/19 10:51:04;;;;;;;5.75;1.85;;;29.80;33.10;;;;;;4956994;29;20032;-79
2022/05/19 10:53:35;;;;;;;3.47;2.17;;;29.90;34.00;;;;;;4962706;28;20043;-83
2022/05/19 10:56:19;;;;;;;5.55;2.28;;;30.00;33.70;;;;;;4959357;28;20409;-81
2022/05/19 10:59:09;;;;;;;5.03;2.20;;;30.30;34.00;;;;;;4975478;28;20031;-87
2022/05/19 11:01:56;;;;;;;6.30;2.20;;;30.20;33.50;;;;;;4970898;28;20079;-83
2022/05/19 11:05:06;;;;;;;4.15;2.10;;;30.30;33.20;;;;;;4975187;28;20077;-82
2022/05/19 11:07:38;;;;;;;3.53;1.88;;;30.30;33.50;;;;;;4959778;28;20043;-81
2022/05/19 11:10:06;;;;;;;15.35;2.58;;;30.50;34.70;;;;;;4975872;28;20505;-80
2022/05/19 11:12:49;;;;;;;6.53;2.33;;;30.00;33.80;;;;;;4975268;28;20041;-80
2022/05/19 11:15:36;;;;;;;3.20;1.70;;;30.00;33.30;;;;;;4966397;28;20108;-88
2022/05/19 11:18:19;;;;;;;4.32;2.08;;;30.00;32.30;;;;;;5018482;28;20107;-80
2022/05/19 11:21:14;;;;;;;4.18;1.88;;;29.70;33.50;;;;;;5017629;28;20477;-82
2022/05/19 11:24:08;;;;;;;7.13;2.05;;;29.30;33.00;;;;;;5034150;28;20041;-86
2022/05/19 11:26:39;;;;;;;3.60;1.58;;;29.50;32.50;;;;;;5024526;28;20029;-88
2022/05/19 11:29:05;;;;;;;3.97;1.55;;;29.50;31.70;;;;;;5034341;28;20029;-83
2022/05/19 11:31:44;;;;;;;4.70;1.50;;;29.80;32.00;;;;;;5017651;28;20041;-89
2022/05/19 11:34:26;;;;;;;3.10;1.30;;;30.10;32.90;;;;;;5017207;28;20021;-79
2022/05/19 11:37:05;;;;;;;3.75;1.30;;;30.10;32.70;;;;;;5016910;28;20033;-82
2022/05/19 11:39:37;;;;;;;5.25;1.60;;;29.80;32.20;;;;;;5033873;28;20029;-81
2022/05/19 11:42:35;;;;;;;3.75;1.35;;;28.80;32.10;;;;;;5016998;28;20065;-89
2022/05/19 11:45:03;;;;;;;4.50;1.50;;;29.00;33.10;;;;;;5035655;28;20053;-77
2022/05/19 11:56:21;;;;;;;4.00;1.70;;;29.50;33.10;;;;;;4975173;28;20095;-81
2022/05/19 11:58:48;;;;;;;3.38;1.50;;;29.80;33.80;;;;;;4974238;28;20046;-84
2022/05/19 12:01:37;;;;;;;4.05;1.50;;;29.30;33.50;;;;;;4959537;28;20030;-87
2022/05/19 12:04:35;;;;;;;2.97;1.60;;;29.80;34.40;;;;;;4975434;28;20046;-81
2022/05/19 12:07:22;;;;;;;3.15;1.52;;;30.10;33.80;;;;;;4971457;28;20041;-77
2022/05/19 12:09:53;;;;;;;4.40;1.42;;;30.40;33.40;;;;;;4974135;28;20043;-80
2022/05/19 12:12:29;;;;;;;5.03;1.70;;;30.50;33.30;;;;;;4973820;28;20057;-87
2022/05/19 12:15:42;;;;;;;3.45;1.63;;;30.70;34.20;;;;;;4974351;28;20043;-78
2022/05/19 12:18:24;;;;;;;4.30;1.50;;;30.20;33.80;;;;;;4972605;28;20490;-81
2022/05/19 12:21:21;;;;;;;3.90;1.50;;;30.20;34.00;;;;;;4975122;28;20113;-90
2022/05/19 12:23:48;;;;;;;6.72;1.70;;;30.60;33.90;;;;;;4973875;28;20047;-80
2022/05/19 12:26:19;;;;;;;2.88;1.50;;;30.80;33.70;;;;;;4974035;28;20038;-85
2022/05/19 12:28:45;;;;;;;4.63;1.50;;;30.90;34.20;;;;;;4974616;28;20037;-78
2022/05/19 12:34:07;;;;;;;3.90;1.50;;;30.70;33.40;;;;;;5035672;28;20088;-83
2022/05/19 12:36:38;;;;;;;3.58;1.67;;;31.20;33.30;;;;;;5035237;28;20022;-83
2022/05/19 12:39:28;;;;;;;6.72;1.75;;;31.00;32.00;;;;;;5015720;28;20025;-85
2022/05/19 12:42:12;;;;;;;4.88;1.50;;;30.70;32.70;;;;;;5016903;28;20045;-80
2022/05/19 12:44:58;;;;;;;3.20;1.60;;;30.20;32.10;;;;;;5016413;28;20049;-82
2022/05/19 12:47:30;;;;;;;3.85;1.50;;;30.00;33.30;;;;;;5016424;28;20036;-79
2022/05/19 12:50:03;;;;;;;4.43;1.70;;;29.40;32.10;;;;;;5016348;28;20063;-85
2022/05/19 12:53:09;;;;;;;4.72;1.60;;;28.80;33.30;;;;;;4997340;28;20025;-83
2022/05/19 12:55:42;;;;;;;3.58;1.60;;;29.40;33.40;;;;;;4996699;28;20050;-85
2022/05/19 12:58:46;;;;;;;3.25;1.52;;;29.70;34.20;;;;;;4996443;28;20033;-77
2022/05/19 13:01:13;;;;;;;4.22;1.50;;;30.10;33.20;;;;;;5014824;28;20018;-79
2022/05/19 13:03:50;;;;;;;4.70;1.58;;;30.60;33.90;;;;;;5013862;28;20445;-83
2022/05/19 13:06:16;;;;;;;3.42;1.60;;;30.60;33.00;;;;;;4996232;28;20045;-80
2022/05/19 13:08:54;;;;;;;3.28;1.33;;;29.80;33.40;;;;;;4996339;28;20459;-79
2022/05/19 13:11:30;;;;;;;2.63;1.30;;;29.80;33.80;;;;;;5014224;28;20032;-82
2022/05/19 13:14:05;;;;;;;5.38;1.40;;;30.00;32.80;;;;;;4996684;28;20083;-81
2022/05/19 13:16:37;;;;;;;2.70;1.48;;;30.40;33.70;;;;;;4996233;28;20018;-86
2022/05/19 13:19:06;;;;;;;6.68;1.42;;;30.70;33.30;;;;;;4996650;28;20389;-81
2022/05/19 13:21:37;;;;;;;5.78;1.50;;;30.20;32.80;;;;;;5024753;28;20516;-81
2022/05/19 13:24:09;;;;;;;5.97;1.33;;;30.50;33.30;;;;;;5033529;28;20492;-84
2022/05/19 13:26:40;;;;;;;2.72;1.50;;;31.00;33.50;;;;;;5016094;28;20037;-79
2022/05/19 13:32:07;;;;;;;3.45;1.48;;;30.70;32.80;;;;;;5033805;28;20059;-84
2022/05/19 13:34:47;;;;;;;2.97;1.45;;;30.90;33.10;;;;;;5015913;28;20036;-90
2022/05/19 13:37:27;;;;;;;4.28;1.80;;;31.20;33.60;;;;;;5015520;28;20025;-86